createdAt,value
2019-01-17T00:00:53.858Z,94325.38
2019-01-17T00:03:51.794Z,94321.70
2019-01-17T00:06:41.657Z,94317.28
2019-01-17T00:09:25.084Z,94314.64
2019-01-17T00:12:12.605Z,94315.15
2019-01-17T00:15:07.581Z,94315.59
2019-01-17T00:17:55.313Z,94306.64
2019-01-17T00:20:43.746Z,94301.92
2019-01-17T00:23:38.682Z,94303.52
2019-01-17T00:26:26.510Z,94297.19
2019-01-17T00:29:19.307Z,94304.48
2019-01-17T00:32:05.693Z,94300.41
2019-01-17T00:35:00.632Z,94294.40
2019-01-17T00:37:39.173Z,94295.88
2019-01-17T00:40:32.867Z,94306.19
2019-01-17T00:43:24.682Z,94298.00
2019-01-17T00:46:10.111Z,94305.49
2019-01-17T00:49:11.335Z,94303.98
2019-01-17T00:51:59.086Z,94309.77
2019-01-17T00:54:47.059Z,94304.17
2019-01-17T00:57:43.164Z,94300.43
2019-01-17T01:00:24.388Z,94304.66
2019-01-17T01:03:14.726Z,94301.73
2019-01-17T01:06:06.900Z,94303.80
2019-01-17T01:09:11.048Z,94307.30
2019-01-17T01:12:03.011Z,94310.72
2019-01-17T01:14:51.750Z,94317.80
2019-01-17T01:17:39.573Z,94317.16
2019-01-17T01:20:29.611Z,94323.55
2019-01-17T01:23:22.365Z,94328.28
2019-01-17T01:26:14.485Z,94320.28
2019-01-17T01:29:02.073Z,94318.42
2019-01-17T01:31:53.917Z,94317.62
2019-01-17T01:34:44.108Z,94316.00
2019-01-17T01:37:29.049Z,94308.58
2019-01-17T01:40:13.121Z,94311.47
2019-01-17T01:43:01.321Z,94311.41
2019-01-17T01:45:56.049Z,94318.08
2019-01-17T01:48:44.998Z,94316.95
2019-01-17T01:51:38.393Z,94319.53
2019-01-17T01:54:08.445Z,94322.78
2019-01-17T01:56:38.444Z,94326.58
2019-01-17T01:59:08.545Z,94320.69
2019-01-17T02:01:38.462Z,94316.20
2019-01-17T02:04:08.518Z,94311.16
2019-01-17T02:06:39.827Z,94310.05
2019-01-17T02:09:10.041Z,94316.57
2019-01-17T02:11:40.037Z,94319.20
2019-01-17T02:14:10.268Z,94315.06
2019-01-17T02:16:40.310Z,94319.22
2019-01-17T02:19:10.333Z,94322.08
2019-01-17T02:21:40.332Z,94321.59
2019-01-17T02:24:10.248Z,94317.80
2019-01-17T02:26:40.315Z,94324.39
2019-01-17T02:29:10.329Z,94321.66
2019-01-17T02:31:40.340Z,94322.17
2019-01-17T02:34:10.375Z,94334.09
2019-01-17T02:36:40.480Z,94324.43
2019-01-17T02:39:10.468Z,94337.35
2019-01-17T02:41:41.133Z,94329.69
2019-01-17T02:44:13.112Z,94333.83
2019-01-17T02:46:43.211Z,94340.64
2019-01-17T02:49:13.197Z,94325.95
2019-01-17T02:51:44.812Z,94339.70
2019-01-17T02:54:14.704Z,94336.07
2019-01-17T02:56:44.732Z,94340.05
2019-01-17T02:59:14.742Z,94337.09
2019-01-17T03:01:44.719Z,94338.64
2019-01-17T03:04:14.640Z,94339.66
2019-01-17T03:06:44.538Z,94348.11
2019-01-17T03:09:14.418Z,94346.52
2019-01-17T03:11:44.405Z,94352.92
2019-01-17T03:14:14.269Z,94352.17
2019-01-17T03:16:44.249Z,94353.46
2019-01-17T03:19:14.277Z,94357.41
2019-01-17T03:21:44.292Z,94341.27
2019-01-17T03:24:14.298Z,94356.84
2019-01-17T03:26:44.273Z,94349.29
2019-01-17T03:29:14.272Z,94346.88
2019-01-17T03:31:44.230Z,94347.77
2019-01-17T03:34:14.166Z,94354.00
2019-01-17T03:36:44.195Z,94345.75
2019-01-17T03:39:14.167Z,94321.23
2019-01-17T03:41:44.161Z,94334.59
2019-01-17T03:44:14.124Z,94338.84
2019-01-17T03:46:44.057Z,94354.84
2019-01-17T03:49:14.085Z,94358.47
2019-01-17T03:51:44.135Z,94346.47
2019-01-17T03:54:14.209Z,94335.04
2019-01-17T03:56:44.099Z,94355.57
2019-01-17T03:59:14.110Z,94347.72
2019-01-17T04:01:44.085Z,94340.35
2019-01-17T04:04:14.074Z,94352.19
2019-01-17T04:06:43.885Z,94336.61
2019-01-17T04:09:13.918Z,94338.91
2019-01-17T04:11:43.894Z,94345.85
2019-01-17T04:14:13.873Z,94336.36
2019-01-17T04:16:43.827Z,94334.88
2019-01-17T04:19:13.769Z,94350.47
2019-01-17T04:21:43.649Z,94333.81
2019-01-17T04:24:13.579Z,94327.44
2019-01-17T04:26:43.550Z,94348.30
2019-01-17T04:29:13.473Z,94346.64
2019-01-17T04:31:43.464Z,94345.00
2019-01-17T04:34:13.439Z,94345.16
2019-01-17T04:36:43.370Z,94341.77
2019-01-17T04:39:13.324Z,94347.52
2019-01-17T04:41:43.316Z,94356.16
2019-01-17T04:44:13.189Z,94351.88
2019-01-17T04:46:43.086Z,94340.15
2019-01-17T04:49:13.130Z,94349.05
2019-01-17T04:51:43.028Z,94343.20
2019-01-17T04:54:12.993Z,94348.80
2019-01-17T04:56:42.847Z,94345.61
2019-01-17T04:59:32.047Z,94344.63
2019-01-17T05:02:02.001Z,94348.55
2019-01-17T05:04:32.126Z,94340.48
2019-01-17T05:07:02.137Z,94350.66
2019-01-17T05:09:32.149Z,94350.56
2019-01-17T05:12:02.058Z,94348.86
2019-01-17T05:14:31.871Z,94342.84
2019-01-17T05:17:01.798Z,94339.64
2019-01-17T05:19:31.724Z,94353.06
2019-01-17T05:22:01.662Z,94354.05
2019-01-17T05:24:31.558Z,94350.66
2019-01-17T05:27:01.580Z,94339.36
2019-01-17T05:29:31.477Z,94339.34
2019-01-17T05:32:01.603Z,94335.19
2019-01-17T05:34:38.973Z,94330.20
2019-01-17T05:37:03.374Z,94331.30
2019-01-17T05:39:33.360Z,94334.23
2019-01-17T05:42:03.641Z,94335.02
2019-01-17T05:44:33.514Z,94320.42
2019-01-17T05:47:03.341Z,94319.27
2019-01-17T05:49:33.196Z,94324.92
2019-01-17T05:52:03.265Z,94322.37
2019-01-17T05:54:33.150Z,94308.94
2019-01-17T05:57:03.018Z,94316.00
2019-01-17T05:59:32.967Z,94304.51
2019-01-17T06:02:02.888Z,94311.98
2019-01-17T06:04:32.883Z,94304.83
2019-01-17T06:07:02.896Z,94308.63
2019-01-17T06:09:32.756Z,94304.45
2019-01-17T06:12:02.635Z,94309.42
2019-01-17T06:14:32.753Z,94294.95
2019-01-17T06:17:02.846Z,94296.41
2019-01-17T06:19:32.672Z,94297.73
2019-01-17T06:22:02.704Z,94298.09
2019-01-17T06:24:32.711Z,94297.88
2019-01-17T06:27:02.651Z,94297.47
2019-01-17T06:29:32.616Z,94292.81
2019-01-17T06:32:02.584Z,94289.97
2019-01-17T06:34:32.565Z,94287.62
2019-01-17T06:37:02.536Z,94288.97
2019-01-17T06:39:32.487Z,94293.06
2019-01-17T06:42:02.522Z,94286.74
2019-01-17T06:44:32.464Z,94285.08
2019-01-17T06:47:02.515Z,94284.20
2019-01-17T06:49:32.446Z,94289.86
2019-01-17T06:52:02.538Z,94281.28
2019-01-17T06:54:32.572Z,94285.69
2019-01-17T06:57:02.589Z,94274.06
2019-01-17T06:59:32.526Z,94285.39
2019-01-17T07:02:02.433Z,94281.51
2019-01-17T07:04:32.388Z,94273.05
2019-01-17T07:07:02.345Z,94270.27
2019-01-17T07:09:32.356Z,94274.02
2019-01-17T07:12:02.375Z,94270.00
2019-01-17T07:14:32.293Z,94270.95
2019-01-17T07:17:02.141Z,94270.08
2019-01-17T07:19:31.997Z,94262.77
2019-01-17T07:22:01.902Z,94262.12
2019-01-17T07:24:31.762Z,94262.02
2019-01-17T07:27:01.648Z,94261.33
2019-01-17T07:29:31.690Z,94267.24
2019-01-17T07:32:01.679Z,94266.44
2019-01-17T07:34:31.693Z,94267.03
2019-01-17T07:37:01.668Z,94259.29
2019-01-17T07:39:32.139Z,94265.29
2019-01-17T07:42:02.059Z,94259.00
2019-01-17T07:44:32.077Z,94257.61
2019-01-17T07:47:01.994Z,94256.31
2019-01-17T07:49:31.900Z,94255.53
2019-01-17T07:52:01.889Z,94265.54
2019-01-17T07:54:31.827Z,94258.12
2019-01-17T07:57:01.871Z,94264.76
2019-01-17T07:59:31.777Z,94262.39
2019-01-17T08:02:01.746Z,94263.70
2019-01-17T08:04:31.834Z,94256.58
2019-01-17T08:07:01.782Z,94267.48
2019-01-17T08:09:31.800Z,94265.26
2019-01-17T08:12:05.049Z,94268.81
2019-01-17T08:14:33.486Z,94258.98
2019-01-17T08:17:04.578Z,94256.57
2019-01-17T08:19:34.579Z,94253.16
2019-01-17T08:22:04.668Z,94260.61
2019-01-17T08:24:34.570Z,94251.84
2019-01-17T08:27:06.208Z,94249.05
2019-01-17T08:29:36.266Z,94252.24
2019-01-17T08:32:06.199Z,94257.59
2019-01-17T08:34:36.862Z,94261.51
2019-01-17T08:37:06.848Z,94263.23
2019-01-17T08:39:36.730Z,94261.91
2019-01-17T08:42:06.751Z,94265.20
2019-01-17T08:44:36.739Z,94274.59
2019-01-17T08:47:06.762Z,94270.05
2019-01-17T08:49:36.596Z,94265.05
2019-01-17T08:52:06.622Z,94264.67
2019-01-17T08:54:36.591Z,94264.34
2019-01-17T08:57:06.495Z,94265.55
2019-01-17T08:59:36.424Z,94269.30
2019-01-17T09:02:06.464Z,94268.08
2019-01-17T09:04:36.436Z,94268.84
2019-01-17T09:07:06.537Z,94266.39
2019-01-17T09:09:36.481Z,94252.78
2019-01-17T09:12:06.465Z,94256.38
2019-01-17T09:14:36.489Z,94253.75
2019-01-17T09:17:06.410Z,94259.79
2019-01-17T09:19:36.424Z,94258.17
2019-01-17T09:22:06.381Z,94252.13
2019-01-17T09:24:36.377Z,94252.61
2019-01-17T09:27:06.272Z,94248.66
2019-01-17T09:29:36.312Z,94247.63
2019-01-17T09:32:06.317Z,94253.06
2019-01-17T09:34:36.186Z,94253.28
2019-01-17T09:37:06.225Z,94255.61
2019-01-17T09:39:36.204Z,94249.82
2019-01-17T09:42:06.214Z,94242.91
2019-01-17T09:44:36.063Z,94248.16
2019-01-17T09:47:06.043Z,94249.20
2019-01-17T09:49:35.889Z,94240.36
2019-01-17T09:52:05.907Z,94232.31
2019-01-17T09:54:35.918Z,94238.30
2019-01-17T09:57:05.946Z,94233.53
2019-01-17T09:59:35.919Z,94230.00
2019-01-17T10:02:05.951Z,94237.91
2019-01-17T10:04:36.451Z,94234.72
2019-01-17T10:07:06.518Z,94230.31
2019-01-17T10:09:36.493Z,94231.50
2019-01-17T10:12:06.494Z,94223.94
2019-01-17T10:14:36.521Z,94225.56
2019-01-17T10:17:46.391Z,94219.87
2019-01-17T10:20:53.875Z,94213.20
2019-01-17T10:23:49.888Z,94214.00
2019-01-17T10:26:48.640Z,94207.64
2019-01-17T10:30:18.935Z,94205.61
2019-01-17T10:33:25.401Z,94210.20
2019-01-17T10:36:21.276Z,94216.55
2019-01-17T10:39:01.000Z,94221.11
2019-01-17T10:42:02.565Z,94211.16
2019-01-17T10:44:41.382Z,94215.40
2019-01-17T10:47:43.485Z,94201.88
2019-01-17T10:50:34.666Z,94197.16
2019-01-17T10:53:21.610Z,94204.20
2019-01-17T10:56:41.616Z,94207.56
2019-01-17T10:59:45.399Z,94209.47
2019-01-17T11:02:58.378Z,94187.16
2019-01-17T11:05:46.471Z,94206.78
2019-01-17T11:09:00.568Z,94188.06
2019-01-17T11:11:48.833Z,94181.64
2019-01-17T11:15:11.862Z,94180.71
2019-01-17T11:18:23.137Z,94183.33
2019-01-17T11:21:37.537Z,94179.72
2019-01-17T11:24:22.263Z,94183.05
2019-01-17T11:27:36.663Z,94181.30
2019-01-17T11:30:25.832Z,94165.52
2019-01-17T11:33:33.319Z,94157.18
2019-01-17T11:36:29.040Z,94159.44
2019-01-17T11:39:19.316Z,94159.05
2019-01-17T11:42:21.490Z,94149.45
2019-01-17T11:45:41.514Z,94156.98
2019-01-17T11:48:31.702Z,94149.42
2019-01-17T11:51:28.866Z,94160.76
2019-01-17T11:54:14.398Z,94153.20
2019-01-17T11:57:30.056Z,94160.19
2019-01-17T12:00:39.598Z,94151.39
2019-01-17T12:03:18.228Z,94148.63
2019-01-17T12:05:49.313Z,94152.90
2019-01-17T12:08:19.341Z,94146.77
2019-01-17T12:10:49.297Z,94150.19
2019-01-17T12:13:19.208Z,94172.23
2019-01-17T12:15:49.163Z,94143.52
2019-01-17T12:18:19.109Z,94169.48
2019-01-17T12:20:49.090Z,94139.78
2019-01-17T12:23:18.998Z,94160.34
2019-01-17T12:25:48.976Z,94178.84
2019-01-17T12:28:19.035Z,94127.27
2019-01-17T12:30:48.961Z,94128.02
2019-01-17T12:33:18.994Z,94133.55
2019-01-17T12:35:48.903Z,94141.27
2019-01-17T12:38:18.946Z,94132.77
2019-01-17T12:40:48.906Z,94147.80
2019-01-17T12:43:18.930Z,94135.56
2019-01-17T12:45:48.973Z,94142.36
2019-01-17T12:48:18.893Z,94136.02
2019-01-17T12:50:49.091Z,94121.88
2019-01-17T12:53:19.066Z,94121.72
2019-01-17T12:55:50.026Z,94123.48
2019-01-17T12:58:19.925Z,94120.48
2019-01-17T13:00:49.889Z,94124.00
2019-01-17T13:03:19.866Z,94146.67
2019-01-17T13:05:49.970Z,94139.34
2019-01-17T13:08:19.885Z,94144.06
2019-01-17T13:10:49.943Z,94146.33
2019-01-17T13:13:19.831Z,94147.06
2019-01-17T13:15:49.792Z,94138.36
2019-01-17T13:18:19.696Z,94139.44
2019-01-17T13:20:49.594Z,94141.83
2019-01-17T13:23:19.611Z,94148.53
2019-01-17T13:25:49.595Z,94153.55
2019-01-17T13:28:19.556Z,94164.70
2019-01-17T13:30:49.502Z,94158.95
2019-01-17T13:33:20.984Z,94169.66
2019-01-17T13:35:51.145Z,94157.51
2019-01-17T13:38:21.105Z,94162.68
2019-01-17T13:40:51.109Z,94158.69
2019-01-17T13:43:22.172Z,94176.77
2019-01-17T13:45:52.159Z,94189.42
2019-01-17T13:48:22.104Z,94203.94
2019-01-17T13:50:52.075Z,94173.19
2019-01-17T13:53:22.069Z,94175.95
2019-01-17T13:55:51.950Z,94181.49
2019-01-17T13:58:21.783Z,94186.32
2019-01-17T14:00:51.804Z,94190.19
2019-01-17T14:03:21.853Z,94180.41
2019-01-17T14:05:51.989Z,94206.27
2019-01-17T14:08:21.998Z,94192.39
2019-01-17T14:10:52.055Z,94181.46
2019-01-17T14:13:22.073Z,94174.36
2019-01-17T14:15:52.029Z,94184.67
2019-01-17T14:18:27.724Z,94175.02
2019-01-17T14:20:53.798Z,94193.01
2019-01-17T14:23:23.827Z,94177.14
2019-01-17T14:25:53.851Z,94188.42
2019-01-17T14:28:23.879Z,94199.36
2019-01-17T14:30:54.047Z,94187.55
2019-01-17T14:33:24.114Z,94221.52
2019-01-17T14:35:54.056Z,94189.86
2019-01-17T14:38:23.947Z,94196.81
2019-01-17T14:40:53.857Z,94203.92
2019-01-17T14:43:23.885Z,94206.13
2019-01-17T14:45:53.759Z,94217.16
2019-01-17T14:48:23.630Z,94214.45
2019-01-17T14:50:53.617Z,94205.03
2019-01-17T14:53:23.677Z,94221.90
2019-01-17T14:55:53.569Z,94218.84
2019-01-17T14:58:23.516Z,94230.09
2019-01-17T15:00:53.488Z,94224.55
2019-01-17T15:03:23.509Z,94260.61
2019-01-17T15:05:53.479Z,94231.56
2019-01-17T15:08:24.351Z,94241.43
2019-01-17T15:10:54.284Z,94239.19
2019-01-17T15:13:24.194Z,94252.68
2019-01-17T15:15:54.133Z,94259.61
2019-01-17T15:18:24.033Z,94259.33
2019-01-17T15:20:53.995Z,94247.62
2019-01-17T15:23:23.904Z,94259.77
2019-01-17T15:25:53.859Z,94267.41
2019-01-17T15:28:23.863Z,94259.56
2019-01-17T15:30:53.910Z,94266.53
2019-01-17T15:33:23.851Z,94266.12
2019-01-17T15:35:53.758Z,94274.16
2019-01-17T15:38:23.741Z,94264.58
2019-01-17T15:40:53.718Z,94269.27
2019-01-17T15:43:23.671Z,94291.98
2019-01-17T15:45:53.637Z,94267.30
2019-01-17T15:48:23.677Z,94281.58
2019-01-17T15:50:53.668Z,94267.63
2019-01-17T15:53:23.690Z,94260.73
2019-01-17T15:56:12.777Z,94265.27
2019-01-17T15:58:42.721Z,94277.03
2019-01-17T16:01:12.701Z,94285.44
2019-01-17T16:03:42.773Z,94276.35
2019-01-17T16:06:13.012Z,94288.56
2019-01-17T16:08:42.896Z,94263.60
2019-01-17T16:11:12.896Z,94290.17
2019-01-17T16:13:42.910Z,94282.61
2019-01-17T16:16:12.940Z,94294.79
2019-01-17T16:18:42.787Z,94295.08
2019-01-17T16:21:12.809Z,94302.87
2019-01-17T16:23:42.710Z,94303.64
2019-01-17T16:26:12.573Z,94316.92
2019-01-17T16:28:42.530Z,94318.59
2019-01-17T16:31:12.426Z,94341.97
2019-01-17T16:33:42.451Z,94319.57
2019-01-17T16:36:12.264Z,94322.82
2019-01-17T16:38:42.314Z,94310.62
2019-01-17T16:41:12.238Z,94331.55
2019-01-17T16:43:42.266Z,94317.80
2019-01-17T16:46:12.343Z,94319.17
2019-01-17T16:48:42.359Z,94343.13
2019-01-17T16:51:12.332Z,94327.28
2019-01-17T16:53:42.301Z,94336.70
2019-01-17T16:56:12.316Z,94337.63
2019-01-17T16:58:42.269Z,94343.59
2019-01-17T17:01:12.278Z,94344.83
2019-01-17T17:03:42.123Z,94362.45
2019-01-17T17:06:12.140Z,94356.66
2019-01-17T17:08:45.006Z,94348.04
2019-01-17T17:11:15.079Z,94370.14
2019-01-17T17:13:45.096Z,94361.69
2019-01-17T17:16:15.158Z,94373.61
2019-01-17T17:18:45.065Z,94375.32
2019-01-17T17:21:15.159Z,94367.38
2019-01-17T17:23:45.109Z,94377.09
2019-01-17T17:26:16.016Z,94371.98
2019-01-17T17:28:46.036Z,94377.11
2019-01-17T17:31:16.034Z,94371.21
2019-01-17T17:33:45.910Z,94377.78
2019-01-17T17:36:15.743Z,94376.49
2019-01-17T17:38:45.763Z,94374.23
2019-01-17T17:41:15.751Z,94371.52
2019-01-17T17:43:45.628Z,94372.78
2019-01-17T17:46:15.627Z,94383.20
2019-01-17T17:48:45.479Z,94372.30
2019-01-17T17:51:15.506Z,94378.67
2019-01-17T17:53:45.367Z,94385.16
2019-01-17T17:56:15.264Z,94382.39
2019-01-17T17:58:45.295Z,94393.50
2019-01-17T18:01:23.643Z,94388.38
2019-01-17T18:03:53.713Z,94388.89
2019-01-17T18:06:23.746Z,94388.96
2019-01-17T18:08:53.781Z,94405.09
2019-01-17T18:11:23.806Z,94411.63
2019-01-17T18:13:53.886Z,94405.86
2019-01-17T18:16:23.868Z,94407.72
2019-01-17T18:18:54.117Z,94409.30
2019-01-17T18:21:24.109Z,94413.13
2019-01-17T18:23:54.142Z,94408.12
2019-01-17T18:26:24.102Z,94411.05
2019-01-17T18:28:54.216Z,94414.66
2019-01-17T18:31:24.117Z,94420.31
2019-01-17T18:33:55.303Z,94419.68
2019-01-17T18:36:25.299Z,94430.65
2019-01-17T18:38:56.592Z,94435.52
2019-01-17T18:41:26.568Z,94435.70
2019-01-17T18:43:56.729Z,94441.70
2019-01-17T18:46:26.763Z,94437.28
2019-01-17T18:48:56.806Z,94438.47
2019-01-17T18:51:26.823Z,94430.16
2019-01-17T18:53:56.891Z,94444.34
2019-01-17T18:56:27.015Z,94441.94
2019-01-17T18:58:57.075Z,94438.91
2019-01-17T19:01:27.095Z,94451.84
2019-01-17T19:03:57.098Z,94458.98
2019-01-17T19:06:27.064Z,94441.38
2019-01-17T19:08:57.158Z,94460.52
2019-01-17T19:11:27.171Z,94448.50
2019-01-17T19:13:57.201Z,94443.70
2019-01-17T19:16:27.197Z,94442.69
2019-01-17T19:18:57.158Z,94426.66
2019-01-17T19:21:27.132Z,94448.95
2019-01-17T19:23:57.191Z,94456.45
2019-01-17T19:26:27.254Z,94426.53
2019-01-17T19:28:57.342Z,94456.14
2019-01-17T19:31:27.355Z,94447.00
2019-01-17T19:33:57.413Z,94434.64
2019-01-17T19:36:27.393Z,94456.48
2019-01-17T19:38:57.548Z,94447.68
2019-01-17T19:41:27.489Z,94457.88
2019-01-17T19:43:57.498Z,94462.88
2019-01-17T19:46:27.612Z,94444.22
2019-01-17T19:48:57.707Z,94449.81
2019-01-17T19:51:27.729Z,94464.36
2019-01-17T19:53:57.746Z,94453.55
2019-01-17T19:56:27.694Z,94458.53
2019-01-17T19:58:57.611Z,94460.52
2019-01-17T20:01:27.686Z,94468.36
2019-01-17T20:03:57.664Z,94463.88
2019-01-17T20:06:27.669Z,94461.15
2019-01-17T20:08:57.940Z,94460.13
2019-01-17T20:11:27.832Z,94456.52
2019-01-17T20:13:57.720Z,94462.55
2019-01-17T20:16:27.718Z,94457.38
2019-01-17T20:18:57.713Z,94463.21
2019-01-17T20:21:27.727Z,94457.69
2019-01-17T20:23:58.658Z,94450.72
2019-01-17T20:26:28.655Z,94463.83
2019-01-17T20:28:58.617Z,94459.78
2019-01-17T20:31:28.519Z,94467.50
2019-01-17T20:33:58.467Z,94469.16
2019-01-17T20:36:28.495Z,94464.80
2019-01-17T20:38:58.545Z,94484.55
2019-01-17T20:41:28.475Z,94472.91
2019-01-17T20:43:58.595Z,94470.44
2019-01-17T20:46:28.591Z,94468.48
2019-01-17T20:48:58.510Z,94483.18
2019-01-17T20:51:28.374Z,94489.54
2019-01-17T20:53:58.453Z,94495.98
2019-01-17T20:56:28.346Z,94511.38
2019-01-17T20:58:58.267Z,94490.02
2019-01-17T21:01:45.561Z,94494.04
2019-01-17T21:04:16.027Z,94499.97
2019-01-17T21:06:46.050Z,94495.05
2019-01-17T21:09:16.006Z,94487.12
2019-01-17T21:11:45.966Z,94506.88
2019-01-17T21:14:15.965Z,94504.98
2019-01-17T21:16:45.952Z,94496.81
2019-01-17T21:19:16.013Z,94507.19
2019-01-17T21:21:45.993Z,94523.80
2019-01-17T21:24:15.992Z,94516.45
2019-01-17T21:26:45.925Z,94528.00
2019-01-17T21:29:15.783Z,94537.27
2019-01-17T21:31:45.764Z,94532.89
2019-01-17T21:34:15.977Z,94530.42
2019-01-17T21:36:45.937Z,94533.58
2019-01-17T21:39:15.773Z,94524.49
2019-01-17T21:41:45.755Z,94534.53
2019-01-17T21:44:15.603Z,94548.77
2019-01-17T21:46:45.580Z,94541.47
2019-01-17T21:49:15.480Z,94545.92
2019-01-17T21:51:45.420Z,94556.23
2019-01-17T21:54:15.384Z,94557.92
2019-01-17T21:56:45.544Z,94544.79
2019-01-17T21:59:15.433Z,94550.70
2019-01-17T22:01:45.517Z,94563.75
2019-01-17T22:04:15.530Z,94563.20
2019-01-17T22:06:53.343Z,94571.11
2019-01-17T22:09:23.318Z,94582.02
2019-01-17T22:11:53.252Z,94597.87
2019-01-17T22:14:23.249Z,94596.30
2019-01-17T22:16:53.276Z,94620.33
2019-01-17T22:19:23.170Z,94616.72
2019-01-17T22:21:53.072Z,94641.16
2019-01-17T22:24:23.165Z,94626.22
2019-01-17T22:26:53.177Z,94635.64
2019-01-17T22:29:23.147Z,94626.27
2019-01-17T22:31:53.014Z,94622.41
2019-01-17T22:34:23.069Z,94633.41
2019-01-17T22:36:53.083Z,94622.73
2019-01-17T22:39:23.006Z,94635.13
2019-01-17T22:41:52.946Z,94627.01
2019-01-17T22:44:23.064Z,94635.52
2019-01-17T22:46:53.068Z,94628.25
2019-01-17T22:49:23.040Z,94625.95
2019-01-17T22:51:53.147Z,94622.39
2019-01-17T22:54:23.066Z,94635.81
2019-01-17T22:56:52.999Z,94631.97
2019-01-17T22:59:22.980Z,94627.91
2019-01-17T23:01:53.002Z,94626.43
2019-01-17T23:04:22.896Z,94637.58
2019-01-17T23:06:52.962Z,94639.88
2019-01-17T23:09:23.012Z,94638.73
2019-01-17T23:11:52.986Z,94640.75
2019-01-17T23:14:22.946Z,94633.66
2019-01-17T23:16:52.791Z,94634.67
2019-01-17T23:19:22.797Z,94649.62
2019-01-17T23:21:52.765Z,94644.43
2019-01-17T23:24:22.730Z,94634.95
2019-01-17T23:26:52.603Z,94637.06
2019-01-17T23:29:22.506Z,94641.00
2019-01-17T23:31:52.588Z,94649.48
2019-01-17T23:34:22.569Z,94610.67
2019-01-17T23:36:52.549Z,94639.39
2019-01-17T23:39:22.437Z,94628.77
2019-01-17T23:41:52.398Z,94629.75
2019-01-17T23:44:22.280Z,94627.03
2019-01-17T23:46:52.273Z,94627.16
2019-01-17T23:49:22.228Z,94637.84
2019-01-17T23:51:52.149Z,94630.28
2019-01-17T23:54:22.040Z,94638.27
2019-01-17T23:56:52.009Z,94642.16
2019-01-17T23:59:22.688Z,94637.18
